createdAt,value
2019-04-16T00:00:55.508Z,102051.19
2019-04-16T00:04:36.548Z,102040.95
2019-04-16T00:08:26.689Z,102039.28
2019-04-16T00:11:44.449Z,102033.39
2019-04-16T00:14:52.240Z,102028.67
2019-04-16T00:18:08.889Z,102032.55
2019-04-16T00:21:34.019Z,102026.59
2019-04-16T00:24:58.458Z,102020.27
2019-04-16T00:28:21.131Z,102020.72
2019-04-16T00:31:28.649Z,102014.77
2019-04-16T00:34:45.486Z,102011.80
2019-04-16T00:37:51.683Z,102012.25
2019-04-16T00:41:01.326Z,102010.18
2019-04-16T00:44:18.083Z,102015.25
2019-04-16T00:47:35.150Z,102011.02
2019-04-16T00:50:51.611Z,102012.30
2019-04-16T00:53:59.127Z,102011.88
2019-04-16T00:57:18.038Z,102011.88
2019-04-16T01:00:34.095Z,102005.10
2019-04-16T01:03:50.882Z,102002.13
2019-04-16T01:06:58.020Z,102008.95
2019-04-16T01:10:05.521Z,102002.58
2019-04-16T01:13:24.551Z,101997.45
2019-04-16T01:16:40.568Z,101989.84
2019-04-16T01:19:57.255Z,101991.55
2019-04-16T01:23:04.634Z,101992.83
2019-04-16T01:26:21.239Z,101991.57
2019-04-16T01:29:28.394Z,101993.27
2019-04-16T01:33:00.932Z,101991.14
2019-04-16T01:36:20.306Z,101991.56
2019-04-16T01:39:29.271Z,101987.33
2019-04-16T01:42:36.545Z,101991.56
2019-04-16T01:45:43.851Z,101984.80
2019-04-16T01:48:51.220Z,101988.20
2019-04-16T01:51:58.554Z,101985.64
2019-04-16T01:55:05.113Z,101985.65
2019-04-16T01:58:12.355Z,101986.48
2019-04-16T02:01:19.739Z,101985.22
2019-04-16T02:04:26.879Z,101985.20
2019-04-16T02:07:34.186Z,101986.92
2019-04-16T02:10:41.400Z,101986.07
2019-04-16T02:13:48.611Z,101987.34
2019-04-16T02:16:56.738Z,101984.38
2019-04-16T02:20:13.336Z,101984.39
2019-04-16T02:23:30.089Z,101984.80
2019-04-16T02:26:46.787Z,101978.86
2019-04-16T02:29:54.025Z,101982.67
2019-04-16T02:33:01.348Z,101986.50
2019-04-16T02:36:18.473Z,101979.30
2019-04-16T02:39:47.609Z,101976.32
2019-04-16T02:42:53.314Z,101981.84
2019-04-16T02:45:59.631Z,101981.83
2019-04-16T02:49:06.879Z,101979.70
2019-04-16T02:52:23.277Z,101976.34
2019-04-16T02:55:42.917Z,101975.91
2019-04-16T02:58:54.092Z,101974.21
2019-04-16T03:02:23.101Z,101974.21
2019-04-16T03:05:35.023Z,101971.23
2019-04-16T03:08:55.564Z,101962.77
2019-04-16T03:12:03.046Z,101964.04
2019-04-16T03:15:10.524Z,101962.78
2019-04-16T03:18:19.323Z,101968.71
2019-04-16T03:21:27.526Z,101961.94
2019-04-16T03:24:37.539Z,101961.52
2019-04-16T03:27:54.378Z,101953.45
2019-04-16T03:31:07.349Z,101956.86
2019-04-16T03:34:11.350Z,101955.58
2019-04-16T03:37:18.476Z,101955.99
2019-04-16T03:40:26.090Z,101949.66
2019-04-16T03:43:42.634Z,101949.66
2019-04-16T03:46:50.045Z,101945.85
2019-04-16T03:50:07.504Z,101941.61
2019-04-16T03:53:29.945Z,101943.70
2019-04-16T03:56:37.247Z,101944.58
2019-04-16T03:59:53.955Z,101941.61
2019-04-16T04:03:01.330Z,101944.16
2019-04-16T04:06:17.932Z,101946.27
2019-04-16T04:09:34.719Z,101943.28
2019-04-16T04:12:42.608Z,101945.82
2019-04-16T04:16:01.648Z,101941.61
2019-04-16T04:19:18.972Z,101937.36
2019-04-16T04:22:26.654Z,101941.61
2019-04-16T04:25:42.976Z,101934.83
2019-04-16T04:28:51.589Z,101946.27
2019-04-16T04:32:08.520Z,101929.32
2019-04-16T04:35:20.371Z,101939.48
2019-04-16T04:38:37.418Z,101929.73
2019-04-16T04:41:43.019Z,101930.61
2019-04-16T04:44:50.232Z,101930.59
2019-04-16T04:48:11.031Z,101922.55
2019-04-16T04:51:26.272Z,101922.98
2019-04-16T04:54:33.847Z,101928.88
2019-04-16T04:57:50.112Z,101918.73
2019-04-16T05:00:57.504Z,101923.39
2019-04-16T05:04:26.504Z,101916.62
2019-04-16T05:07:33.627Z,101924.22
2019-04-16T05:10:43.422Z,101922.97
2019-04-16T05:13:49.848Z,101921.27
2019-04-16T05:16:57.176Z,101925.52
2019-04-16T05:20:04.603Z,101922.97
2019-04-16T05:23:24.905Z,101922.95
2019-04-16T05:26:39.875Z,101930.57
2019-04-16T05:29:56.576Z,101926.79
2019-04-16T05:33:13.477Z,101930.16
2019-04-16T05:36:21.691Z,101935.64
2019-04-16T05:39:29.281Z,101938.20
2019-04-16T05:42:36.731Z,101937.77
2019-04-16T05:45:42.330Z,101929.72
2019-04-16T05:48:58.899Z,101933.10
2019-04-16T05:52:06.243Z,101929.23
2019-04-16T05:55:34.296Z,101927.97
2019-04-16T05:59:10.607Z,101929.68
2019-04-16T06:02:26.422Z,101918.68
2019-04-16T06:05:33.543Z,101916.53
2019-04-16T06:08:41.691Z,101916.12
2019-04-16T06:11:48.904Z,101911.84
2019-04-16T06:15:05.503Z,101913.09
2019-04-16T06:18:29.718Z,101915.20
2019-04-16T06:22:02.059Z,101916.06
2019-04-16T06:25:41.444Z,101910.05
2019-04-16T06:28:55.161Z,101907.98
2019-04-16T06:32:48.672Z,101911.72
2019-04-16T06:36:01.900Z,101915.92
2019-04-16T06:39:42.466Z,101911.23
2019-04-16T06:43:12.908Z,101909.08
2019-04-16T06:46:40.519Z,101904.06
2019-04-16T06:50:05.755Z,101906.53
2019-04-16T06:53:30.989Z,101905.20
2019-04-16T06:56:42.379Z,101902.66
2019-04-16T07:00:14.450Z,101897.89
2019-04-16T07:03:51.344Z,101898.63
2019-04-16T07:07:39.901Z,101894.39
2019-04-16T07:11:00.942Z,101889.68
2019-04-16T07:14:21.964Z,101888.72
2019-04-16T07:17:40.480Z,101891.30
2019-04-16T07:20:57.061Z,101895.48
2019-04-16T07:24:04.319Z,101894.13
2019-04-16T07:27:10.858Z,101899.13
2019-04-16T07:30:38.659Z,101898.70
2019-04-16T07:34:24.952Z,101898.28
2019-04-16T07:38:11.525Z,101893.97
2019-04-16T07:42:07.767Z,101893.43
2019-04-16T07:45:35.262Z,101893.52
2019-04-16T07:49:04.699Z,101897.11
2019-04-16T07:52:31.013Z,101895.81
2019-04-16T07:55:49.455Z,101902.20
2019-04-16T07:59:00.221Z,101896.95
2019-04-16T08:02:05.877Z,101897.16
2019-04-16T08:05:12.151Z,101892.52
2019-04-16T08:08:28.787Z,101898.37
2019-04-16T08:11:45.586Z,101901.09
2019-04-16T08:14:52.227Z,101902.76
2019-04-16T08:17:59.463Z,101906.05
2019-04-16T08:21:12.104Z,101901.80
2019-04-16T08:24:24.435Z,101901.74
2019-04-16T08:27:29.371Z,101906.54
2019-04-16T08:30:39.430Z,101902.92
2019-04-16T08:33:45.603Z,101899.05
2019-04-16T08:37:02.445Z,101899.17
2019-04-16T08:40:19.196Z,101894.86
2019-04-16T08:43:35.892Z,101896.59
2019-04-16T08:46:43.221Z,101904.53
2019-04-16T08:49:59.992Z,101898.55
2019-04-16T08:53:16.694Z,101893.12
2019-04-16T08:56:23.998Z,101897.70
2019-04-16T08:59:42.601Z,101898.39
2019-04-16T09:02:49.639Z,101891.28
2019-04-16T09:06:06.751Z,101893.34
2019-04-16T09:09:28.850Z,101894.44
2019-04-16T09:12:40.672Z,101889.25
2019-04-16T09:15:44.071Z,101887.39
2019-04-16T09:18:59.855Z,101888.47
2019-04-16T09:22:20.649Z,101886.41
2019-04-16T09:25:52.457Z,101881.47
2019-04-16T09:29:24.908Z,101876.53
2019-04-16T09:32:52.811Z,101871.66
2019-04-16T09:36:42.281Z,101880.14
2019-04-16T09:40:17.569Z,101879.06
2019-04-16T09:43:24.946Z,101880.63
2019-04-16T09:46:50.463Z,101881.50
2019-04-16T09:49:41.248Z,101882.04
2019-04-16T09:52:48.419Z,101879.96
2019-04-16T09:55:55.736Z,101875.19
2019-04-16T09:59:05.907Z,101877.75
2019-04-16T10:02:16.896Z,101881.12
2019-04-16T10:05:26.509Z,101878.50
2019-04-16T10:08:44.931Z,101876.07
2019-04-16T10:12:01.033Z,101878.19
2019-04-16T10:15:17.632Z,101869.92
2019-04-16T10:18:35.131Z,101866.19
2019-04-16T10:21:43.278Z,101862.77
2019-04-16T10:25:17.787Z,101860.41
2019-04-16T10:28:37.780Z,101856.05
2019-04-16T10:31:55.183Z,101850.18
2019-04-16T10:35:00.738Z,101850.67
2019-04-16T10:38:24.169Z,101840.06
2019-04-16T10:41:41.904Z,101846.82
2019-04-16T10:44:59.244Z,101839.48
2019-04-16T10:48:28.751Z,101828.30
2019-04-16T10:51:54.971Z,101830.14
2019-04-16T10:55:36.611Z,101817.07
2019-04-16T10:58:59.866Z,101813.45
2019-04-16T11:02:28.835Z,101809.03
2019-04-16T11:05:42.337Z,101811.19
2019-04-16T11:08:49.608Z,101801.48
2019-04-16T11:11:56.888Z,101798.19
2019-04-16T11:15:04.241Z,101806.08
2019-04-16T11:18:11.728Z,101802.80
2019-04-16T11:21:19.030Z,101788.48
2019-04-16T11:24:25.196Z,101788.30
2019-04-16T11:27:43.738Z,101786.14
2019-04-16T11:31:03.026Z,101772.54
2019-04-16T11:34:11.548Z,101776.67
2019-04-16T11:37:18.831Z,101770.82
2019-04-16T11:40:26.065Z,101763.30
2019-04-16T11:43:33.445Z,101765.11
2019-04-16T11:46:40.758Z,101767.84
2019-04-16T11:49:48.010Z,101760.05
2019-04-16T11:52:58.400Z,101766.28
2019-04-16T11:56:04.585Z,101760.53
2019-04-16T11:59:21.264Z,101744.05
2019-04-16T12:02:51.008Z,101748.74
2019-04-16T12:06:27.752Z,101766.94
2019-04-16T12:09:34.356Z,101760.60
2019-04-16T12:13:32.716Z,101758.53
2019-04-16T12:17:05.421Z,101757.39
2019-04-16T12:20:22.870Z,101756.61
2019-04-16T12:23:43.429Z,101751.20
2019-04-16T12:27:12.954Z,101750.26
2019-04-16T12:30:59.067Z,101745.42
2019-04-16T12:34:30.198Z,101744.83
2019-04-16T12:37:55.283Z,101749.59
2019-04-16T12:41:40.780Z,101749.64
2019-04-16T12:45:00.717Z,101747.70
2019-04-16T12:48:42.347Z,101743.54
2019-04-16T12:52:40.723Z,101741.34
2019-04-16T12:56:07.742Z,101725.87
2019-04-16T12:59:23.020Z,101731.49
2019-04-16T13:03:04.381Z,101719.56
2019-04-16T13:06:16.144Z,101722.52
2019-04-16T13:09:53.926Z,101726.84
2019-04-16T13:13:18.940Z,101730.31
2019-04-16T13:16:52.760Z,101723.43
2019-04-16T13:20:29.534Z,101726.30
2019-04-16T13:23:41.299Z,101721.89
2019-04-16T13:27:16.635Z,101721.25
2019-04-16T13:30:24.294Z,101724.36
2019-04-16T13:33:31.495Z,101718.48
2019-04-16T13:36:38.930Z,101707.81
2019-04-16T13:40:20.807Z,101701.39
2019-04-16T13:43:33.791Z,101705.60
2019-04-16T13:47:03.601Z,101692.31
2019-04-16T13:50:17.730Z,101690.27
2019-04-16T13:54:00.330Z,101687.47
2019-04-16T13:57:13.610Z,101693.31
2019-04-16T14:00:43.213Z,101684.58
2019-04-16T14:03:48.763Z,101699.96
2019-04-16T14:06:55.987Z,101691.52
2019-04-16T14:10:03.497Z,101693.77
2019-04-16T14:13:13.476Z,101696.86
2019-04-16T14:16:19.627Z,101693.66
2019-04-16T14:19:26.855Z,101687.60
2019-04-16T14:22:43.833Z,101684.05
2019-04-16T14:26:00.746Z,101685.47
2019-04-16T14:29:17.792Z,101681.78
2019-04-16T14:32:34.303Z,101679.89
2019-04-16T14:35:51.221Z,101672.30
2019-04-16T14:39:19.718Z,101670.67
2019-04-16T14:42:27.189Z,101680.69
2019-04-16T14:45:58.246Z,101677.19
2019-04-16T14:49:08.158Z,101674.64
2019-04-16T14:52:15.393Z,101678.44
2019-04-16T14:55:59.833Z,101667.46
2019-04-16T14:59:10.470Z,101673.37
2019-04-16T15:02:40.463Z,101667.48
2019-04-16T15:06:01.403Z,101669.88
2019-04-16T15:09:33.464Z,101674.48
2019-04-16T15:13:08.522Z,101673.53
2019-04-16T15:17:12.214Z,101669.58
2019-04-16T15:20:48.826Z,101668.66
2019-04-16T15:24:25.697Z,101663.63
2019-04-16T15:28:03.943Z,101670.92
2019-04-16T15:31:43.424Z,101664.02
2019-04-16T15:34:50.956Z,101664.83
2019-04-16T15:38:02.956Z,101661.15
2019-04-16T15:41:28.105Z,101664.05
2019-04-16T15:48:38.409Z,101663.80
2019-04-16T15:52:04.687Z,101667.05
2019-04-16T15:55:30.950Z,101672.19
2019-04-16T15:59:03.211Z,101673.33
2019-04-16T16:02:47.166Z,101676.09
2019-04-16T16:05:59.672Z,101680.03
2019-04-16T16:09:31.308Z,101676.76
2019-04-16T16:12:38.531Z,101671.63
2019-04-16T16:15:45.873Z,101683.40
2019-04-16T16:18:53.165Z,101676.91
2019-04-16T16:22:00.463Z,101675.23
2019-04-16T16:25:17.283Z,101670.71
2019-04-16T16:28:34.099Z,101678.75
2019-04-16T16:31:41.347Z,101675.14
2019-04-16T16:34:58.140Z,101683.66
2019-04-16T16:38:15.018Z,101678.73
2019-04-16T16:41:22.382Z,101683.91
2019-04-16T16:44:39.045Z,101685.64
2019-04-16T16:47:46.269Z,101684.58
2019-04-16T16:50:53.547Z,101690.09
2019-04-16T16:54:16.763Z,101686.34
2019-04-16T16:57:41.995Z,101694.44
2019-04-16T17:01:01.679Z,101696.84
2019-04-16T17:04:31.963Z,101696.20
2019-04-16T17:07:39.336Z,101697.06
2019-04-16T17:10:46.645Z,101695.88
2019-04-16T17:14:03.522Z,101694.98
2019-04-16T17:17:20.264Z,101700.39
2019-04-16T17:20:38.403Z,101707.95
2019-04-16T17:23:55.630Z,101706.66
2019-04-16T17:27:12.323Z,101700.06
2019-04-16T17:30:19.535Z,101712.13
2019-04-16T17:33:36.339Z,101714.50
2019-04-16T17:36:53.611Z,101714.66
2019-04-16T17:40:08.741Z,101717.38
2019-04-16T17:43:41.588Z,101720.12
2019-04-16T17:47:19.453Z,101720.97
2019-04-16T17:50:30.403Z,101728.87
2019-04-16T17:53:46.372Z,101726.06
2019-04-16T17:57:10.275Z,101733.93
2019-04-16T18:00:34.699Z,101732.11
2019-04-16T18:04:10.426Z,101740.16
2019-04-16T18:07:55.013Z,101741.15
2019-04-16T18:11:10.032Z,101743.74
2019-04-16T18:14:48.771Z,101745.53
2019-04-16T18:18:06.781Z,101751.61
2019-04-16T18:21:55.773Z,101752.63
2019-04-16T18:25:37.933Z,101763.20
2019-04-16T18:28:54.475Z,101762.27
2019-04-16T18:32:30.853Z,101766.45
2019-04-16T18:36:14.171Z,101771.93
2019-04-16T18:39:31.111Z,101775.31
2019-04-16T18:42:51.263Z,101782.10
2019-04-16T18:46:21.468Z,101785.67
2019-04-16T18:49:46.885Z,101795.17
2019-04-16T18:52:54.161Z,101790.89
2019-04-16T18:56:01.421Z,101801.81
2019-04-16T18:59:08.652Z,101801.55
2019-04-16T19:02:15.880Z,101803.70
2019-04-16T19:05:23.243Z,101814.91
2019-04-16T19:08:41.719Z,101819.91
2019-04-16T19:11:49.462Z,101817.69
2019-04-16T19:15:06.206Z,101819.03
2019-04-16T19:18:19.625Z,101825.98
2019-04-16T19:21:31.635Z,101834.42
2019-04-16T19:24:38.762Z,101836.08
2019-04-16T19:27:48.865Z,101836.89
2019-04-16T19:30:55.505Z,101840.10
2019-04-16T19:34:09.047Z,101846.76
2019-04-16T19:37:11.724Z,101848.52
2019-04-16T19:40:19.622Z,101854.45
2019-04-16T19:43:28.417Z,101861.27
2019-04-16T19:46:45.448Z,101866.19
2019-04-16T19:49:54.048Z,101862.12
2019-04-16T19:53:01.583Z,101863.63
2019-04-16T19:56:18.652Z,101861.00
2019-04-16T19:59:26.831Z,101866.19
2019-04-16T20:02:34.104Z,101873.53
2019-04-16T20:05:41.351Z,101880.03
2019-04-16T20:08:58.052Z,101878.02
2019-04-16T20:12:05.416Z,101872.72
2019-04-16T20:15:28.039Z,101876.87
2019-04-16T20:18:49.989Z,101883.73
2019-04-16T20:21:53.617Z,101885.13
2019-04-16T20:25:01.238Z,101887.30
2019-04-16T20:28:17.626Z,101890.15
2019-04-16T20:31:25.163Z,101888.14
2019-04-16T20:34:42.366Z,101886.55
2019-04-16T20:38:00.122Z,101890.26
2019-04-16T20:41:07.330Z,101894.75
2019-04-16T20:44:24.146Z,101890.70
2019-04-16T20:47:40.871Z,101895.55
2019-04-16T20:50:52.755Z,101896.04
2019-04-16T20:54:06.603Z,101907.02
2019-04-16T20:57:25.647Z,101904.37
2019-04-16T21:00:44.709Z,101903.02
2019-04-16T21:04:04.664Z,101911.41
2019-04-16T21:07:07.137Z,101904.98
2019-04-16T21:10:14.581Z,101905.74
2019-04-16T21:13:21.802Z,101917.20
2019-04-16T21:16:33.471Z,101910.16
2019-04-16T21:19:48.089Z,101911.53
2019-04-16T21:22:57.522Z,101910.70
2019-04-16T21:26:04.262Z,101915.47
2019-04-16T21:29:36.596Z,101928.08
2019-04-16T21:33:21.076Z,101919.62
2019-04-16T21:36:37.952Z,101921.87
2019-04-16T21:39:52.906Z,101927.75
2019-04-16T21:43:00.195Z,101929.57
2019-04-16T21:46:07.705Z,101934.08
2019-04-16T21:49:15.123Z,101933.32
2019-04-16T21:52:23.117Z,101932.00
2019-04-16T21:55:32.879Z,101930.12
2019-04-16T21:58:39.435Z,101929.12
2019-04-16T22:01:46.737Z,101935.09
2019-04-16T22:04:53.317Z,101931.73
2019-04-16T22:08:09.893Z,101926.76
2019-04-16T22:11:26.635Z,101924.44
2019-04-16T22:14:43.430Z,101926.25
2019-04-16T22:17:50.667Z,101935.50
2019-04-16T22:20:57.975Z,101931.93
2019-04-16T22:24:14.643Z,101934.45
2019-04-16T22:27:21.866Z,101930.99
2019-04-16T22:30:29.226Z,101941.81
2019-04-16T22:33:45.887Z,101936.57
2019-04-16T22:37:02.671Z,101939.02
2019-04-16T22:40:23.661Z,101937.88
2019-04-16T22:43:48.710Z,101947.38
2019-04-16T22:46:59.882Z,101948.49
2019-04-16T22:50:27.008Z,101948.45
2019-04-16T22:53:34.237Z,101947.72
2019-04-16T22:57:08.346Z,101951.34
2019-04-16T23:00:26.278Z,101950.55
2019-04-16T23:03:33.574Z,101957.53
2019-04-16T23:06:40.846Z,101955.92
2019-04-16T23:09:48.689Z,101960.38
2019-04-16T23:13:00.326Z,101969.23
2019-04-16T23:16:15.834Z,101961.28
2019-04-16T23:19:32.526Z,101954.44
2019-04-16T23:22:39.758Z,101960.91
2019-04-16T23:25:47.003Z,101965.33
2019-04-16T23:28:54.150Z,101964.34
2019-04-16T23:32:11.054Z,101961.18
2019-04-16T23:35:27.727Z,101969.47
2019-04-16T23:38:34.958Z,101962.90
2019-04-16T23:41:42.246Z,101969.96
2019-04-16T23:45:08.963Z,101965.34
2019-04-16T23:49:04.237Z,101968.59
2019-04-16T23:52:17.670Z,101977.64
2019-04-16T23:55:51.906Z,101969.77
2019-04-16T23:59:18.208Z,101976.20
